sensor_id;sensor_type;location;lat;lon;timestamp;P1;durP1;ratioP1;P2;durP2;ratioP2
53545;SDS011;39432;51.902;10.844;2024-01-16T00:02:07;5.03;;;1.10;;
53545;SDS011;39432;51.902;10.844;2024-01-16T00:04:40;2.47;;;0.57;;
53545;SDS011;39432;51.902;10.844;2024-01-16T00:07:11;4.63;;;0.95;;
53545;SDS011;39432;51.902;10.844;2024-01-16T00:09:41;2.05;;;0.70;;
53545;SDS011;39432;51.902;10.844;2024-01-16T00:12:12;2.35;;;0.95;;
53545;SDS011;39432;51.902;10.844;2024-01-16T00:14:42;4.68;;;0.90;;
53545;SDS011;39432;51.902;10.844;2024-01-16T00:17:12;3.00;;;0.98;;
53545;SDS011;39432;51.902;10.844;2024-01-16T00:19:45;2.92;;;0.80;;
53545;SDS011;39432;51.902;10.844;2024-01-16T00:22:15;2.25;;;0.73;;
53545;SDS011;39432;51.902;10.844;2024-01-16T00:24:45;3.63;;;0.60;;
53545;SDS011;39432;51.902;10.844;2024-01-16T00:27:14;3.38;;;0.90;;
53545;SDS011;39432;51.902;10.844;2024-01-16T00:29:44;2.97;;;0.70;;
53545;SDS011;39432;51.902;10.844;2024-01-16T00:32:15;10.45;;;1.52;;
53545;SDS011;39432;51.902;10.844;2024-01-16T00:34:48;2.13;;;0.70;;
53545;SDS011;39432;51.902;10.844;2024-01-16T00:37:18;2.42;;;0.80;;
53545;SDS011;39432;51.902;10.844;2024-01-16T00:39:48;4.30;;;0.90;;
53545;SDS011;39432;51.902;10.844;2024-01-16T00:42:18;4.03;;;0.88;;
53545;SDS011;39432;51.902;10.844;2024-01-16T00:44:48;2.28;;;0.88;;
53545;SDS011;39432;51.902;10.844;2024-01-16T00:47:18;2.55;;;0.70;;
53545;SDS011;39432;51.902;10.844;2024-01-16T00:49:50;2.95;;;0.93;;
53545;SDS011;39432;51.902;10.844;2024-01-16T00:52:20;4.55;;;0.68;;
53545;SDS011;39432;51.902;10.844;2024-01-16T00:54:50;1.27;;;0.73;;
53545;SDS011;39432;51.902;10.844;2024-01-16T00:57:20;1.92;;;0.80;;
53545;SDS011;39432;51.902;10.844;2024-01-16T00:59:50;3.78;;;0.80;;
53545;SDS011;39432;51.902;10.844;2024-01-16T01:02:20;1.60;;;0.50;;
53545;SDS011;39432;51.902;10.844;2024-01-16T01:04:52;2.10;;;0.63;;
53545;SDS011;39432;51.902;10.844;2024-01-16T01:07:22;2.33;;;0.60;;
53545;SDS011;39432;51.902;10.844;2024-01-16T01:09:52;2.88;;;0.60;;
53545;SDS011;39432;51.902;10.844;2024-01-16T01:12:22;4.10;;;0.73;;
53545;SDS011;39432;51.902;10.844;2024-01-16T01:14:52;2.15;;;0.63;;
53545;SDS011;39432;51.902;10.844;2024-01-16T01:17:22;1.95;;;0.70;;
53545;SDS011;39432;51.902;10.844;2024-01-16T01:19:55;5.32;;;0.90;;
53545;SDS011;39432;51.902;10.844;2024-01-16T01:22:25;2.40;;;0.50;;
53545;SDS011;39432;51.902;10.844;2024-01-16T01:24:55;1.05;;;0.30;;
53545;SDS011;39432;51.902;10.844;2024-01-16T01:27:24;4.53;;;1.05;;
53545;SDS011;39432;51.902;10.844;2024-01-16T01:29:54;6.57;;;1.05;;
53545;SDS011;39432;51.902;10.844;2024-01-16T01:32:24;1.40;;;0.50;;
53545;SDS011;39432;51.902;10.844;2024-01-16T01:34:57;1.95;;;0.70;;
53545;SDS011;39432;51.902;10.844;2024-01-16T01:37:27;2.05;;;0.65;;
53545;SDS011;39432;51.902;10.844;2024-01-16T01:39:57;4.82;;;0.75;;
53545;SDS011;39432;51.902;10.844;2024-01-16T01:42:27;2.30;;;0.60;;
53545;SDS011;39432;51.902;10.844;2024-01-16T01:44:57;2.03;;;0.63;;
53545;SDS011;39432;51.902;10.844;2024-01-16T01:47:27;1.88;;;0.63;;
53545;SDS011;39432;51.902;10.844;2024-01-16T01:50:02;2.15;;;0.60;;
53545;SDS011;39432;51.902;10.844;2024-01-16T01:52:33;1.48;;;0.80;;
53545;SDS011;39432;51.902;10.844;2024-01-16T01:55:03;1.30;;;0.47;;
53545;SDS011;39432;51.902;10.844;2024-01-16T01:57:36;1.75;;;0.55;;
53545;SDS011;39432;51.902;10.844;2024-01-16T02:00:06;1.88;;;0.50;;
53545;SDS011;39432;51.902;10.844;2024-01-16T02:02:39;3.45;;;0.50;;
53545;SDS011;39432;51.902;10.844;2024-01-16T02:05:14;2.55;;;0.70;;
53545;SDS011;39432;51.902;10.844;2024-01-16T02:07:45;1.52;;;0.40;;
53545;SDS011;39432;51.902;10.844;2024-01-16T02:10:15;3.63;;;0.45;;
53545;SDS011;39432;51.902;10.844;2024-01-16T02:12:45;1.60;;;0.68;;
53545;SDS011;39432;51.902;10.844;2024-01-16T02:15:15;2.22;;;0.70;;
53545;SDS011;39432;51.902;10.844;2024-01-16T02:17:47;2.55;;;0.60;;
53545;SDS011;39432;51.902;10.844;2024-01-16T02:20:19;1.50;;;0.50;;
53545;SDS011;39432;51.902;10.844;2024-01-16T02:22:49;3.95;;;0.77;;
53545;SDS011;39432;51.902;10.844;2024-01-16T02:25:26;4.68;;;0.90;;
53545;SDS011;39432;51.902;10.844;2024-01-16T02:27:56;2.33;;;0.57;;
53545;SDS011;39432;51.902;10.844;2024-01-16T02:30:25;2.65;;;0.65;;
53545;SDS011;39432;51.902;10.844;2024-01-16T02:32:56;4.80;;;1.10;;
53545;SDS011;39432;51.902;10.844;2024-01-16T02:35:26;4.15;;;0.80;;
53545;SDS011;39432;51.902;10.844;2024-01-16T02:37:56;2.97;;;0.77;;
53545;SDS011;39432;51.902;10.844;2024-01-16T02:40:29;3.00;;;0.77;;
53545;SDS011;39432;51.902;10.844;2024-01-16T02:42:59;4.22;;;0.65;;
53545;SDS011;39432;51.902;10.844;2024-01-16T02:45:29;1.85;;;0.60;;
53545;SDS011;39432;51.902;10.844;2024-01-16T02:47:59;1.08;;;0.50;;
53545;SDS011;39432;51.902;10.844;2024-01-16T02:50:30;2.55;;;0.60;;
53545;SDS011;39432;51.902;10.844;2024-01-16T02:53:00;4.63;;;0.80;;
53545;SDS011;39432;51.902;10.844;2024-01-16T02:55:33;2.53;;;0.75;;
53545;SDS011;39432;51.902;10.844;2024-01-16T02:58:03;4.68;;;0.75;;
53545;SDS011;39432;51.902;10.844;2024-01-16T03:00:33;7.18;;;0.90;;
53545;SDS011;39432;51.902;10.844;2024-01-16T03:03:04;4.47;;;0.90;;
53545;SDS011;39432;51.902;10.844;2024-01-16T03:05:35;2.88;;;0.80;;
53545;SDS011;39432;51.902;10.844;2024-01-16T03:08:06;4.53;;;1.38;;
53545;SDS011;39432;51.902;10.844;2024-01-16T03:10:39;3.92;;;0.88;;
53545;SDS011;39432;51.902;10.844;2024-01-16T03:13:09;3.25;;;0.75;;
53545;SDS011;39432;51.902;10.844;2024-01-16T03:15:40;9.75;;;1.33;;
53545;SDS011;39432;51.902;10.844;2024-01-16T03:18:10;4.53;;;1.00;;
53545;SDS011;39432;51.902;10.844;2024-01-16T03:20:41;4.35;;;0.98;;
53545;SDS011;39432;51.902;10.844;2024-01-16T03:23:10;2.80;;;0.98;;
53545;SDS011;39432;51.902;10.844;2024-01-16T03:25:43;10.68;;;1.27;;
53545;SDS011;39432;51.902;10.844;2024-01-16T03:28:13;5.95;;;1.13;;
53545;SDS011;39432;51.902;10.844;2024-01-16T03:30:43;5.78;;;1.27;;
53545;SDS011;39432;51.902;10.844;2024-01-16T03:33:14;4.43;;;0.80;;
53545;SDS011;39432;51.902;10.844;2024-01-16T03:35:44;2.92;;;0.70;;
53545;SDS011;39432;51.902;10.844;2024-01-16T03:38:14;5.22;;;1.35;;
53545;SDS011;39432;51.902;10.844;2024-01-16T03:40:47;2.60;;;0.68;;
53545;SDS011;39432;51.902;10.844;2024-01-16T03:43:18;5.50;;;0.90;;
53545;SDS011;39432;51.902;10.844;2024-01-16T03:45:48;5.28;;;1.23;;
53545;SDS011;39432;51.902;10.844;2024-01-16T03:48:18;2.67;;;0.77;;
53545;SDS011;39432;51.902;10.844;2024-01-16T03:50:48;4.97;;;0.82;;
53545;SDS011;39432;51.902;10.844;2024-01-16T03:53:18;5.70;;;0.95;;
53545;SDS011;39432;51.902;10.844;2024-01-16T03:55:50;2.50;;;0.70;;
53545;SDS011;39432;51.902;10.844;2024-01-16T03:58:20;2.45;;;0.73;;
53545;SDS011;39432;51.902;10.844;2024-01-16T04:00:50;4.00;;;0.85;;
53545;SDS011;39432;51.902;10.844;2024-01-16T04:03:20;10.52;;;0.90;;
53545;SDS011;39432;51.902;10.844;2024-01-16T04:05:50;4.55;;;0.98;;
53545;SDS011;39432;51.902;10.844;2024-01-16T04:08:20;3.90;;;0.90;;
53545;SDS011;39432;51.902;10.844;2024-01-16T04:10:53;5.70;;;0.80;;
53545;SDS011;39432;51.902;10.844;2024-01-16T04:13:22;4.10;;;0.80;;
53545;SDS011;39432;51.902;10.844;2024-01-16T04:15:52;2.80;;;0.70;;
53545;SDS011;39432;51.902;10.844;2024-01-16T04:18:22;2.13;;;0.60;;
53545;SDS011;39432;51.902;10.844;2024-01-16T04:20:52;6.20;;;0.90;;
53545;SDS011;39432;51.902;10.844;2024-01-16T04:23:22;6.53;;;0.98;;
53545;SDS011;39432;51.902;10.844;2024-01-16T04:25:54;5.30;;;1.13;;
53545;SDS011;39432;51.902;10.844;2024-01-16T04:28:24;5.53;;;0.60;;
53545;SDS011;39432;51.902;10.844;2024-01-16T04:30:54;3.90;;;0.88;;
53545;SDS011;39432;51.902;10.844;2024-01-16T04:33:24;1.75;;;0.60;;
53545;SDS011;39432;51.902;10.844;2024-01-16T04:35:55;2.97;;;0.65;;
53545;SDS011;39432;51.902;10.844;2024-01-16T04:38:25;6.97;;;0.95;;
53545;SDS011;39432;51.902;10.844;2024-01-16T04:40:57;3.90;;;0.90;;
53545;SDS011;39432;51.902;10.844;2024-01-16T04:43:31;3.00;;;0.73;;
53545;SDS011;39432;51.902;10.844;2024-01-16T04:46:01;8.80;;;1.15;;
53545;SDS011;39432;51.902;10.844;2024-01-16T04:48:31;2.88;;;0.70;;
53545;SDS011;39432;51.902;10.844;2024-01-16T04:51:01;14.10;;;1.45;;
53545;SDS011;39432;51.902;10.844;2024-01-16T04:53:30;3.17;;;0.70;;
53545;SDS011;39432;51.902;10.844;2024-01-16T04:56:04;2.78;;;0.68;;
53545;SDS011;39432;51.902;10.844;2024-01-16T04:58:34;2.78;;;0.65;;
53545;SDS011;39432;51.902;10.844;2024-01-16T05:01:04;5.47;;;1.15;;
53545;SDS011;39432;51.902;10.844;2024-01-16T05:03:35;5.63;;;1.58;;
53545;SDS011;39432;51.902;10.844;2024-01-16T05:06:05;6.13;;;0.98;;
53545;SDS011;39432;51.902;10.844;2024-01-16T05:08:42;2.42;;;0.95;;
53545;SDS011;39432;51.902;10.844;2024-01-16T05:11:15;6.70;;;0.90;;
53545;SDS011;39432;51.902;10.844;2024-01-16T05:13:45;3.25;;;0.95;;
53545;SDS011;39432;51.902;10.844;2024-01-16T05:16:15;5.07;;;1.10;;
53545;SDS011;39432;51.902;10.844;2024-01-16T05:18:45;3.10;;;0.82;;
53545;SDS011;39432;51.902;10.844;2024-01-16T05:21:15;4.05;;;0.70;;
53545;SDS011;39432;51.902;10.844;2024-01-16T05:23:44;7.72;;;0.80;;
53545;SDS011;39432;51.902;10.844;2024-01-16T05:26:17;4.97;;;1.05;;
53545;SDS011;39432;51.902;10.844;2024-01-16T05:28:47;5.70;;;1.10;;
53545;SDS011;39432;51.902;10.844;2024-01-16T05:31:17;3.85;;;1.23;;
53545;SDS011;39432;51.902;10.844;2024-01-16T05:33:47;6.13;;;1.17;;
53545;SDS011;39432;51.902;10.844;2024-01-16T05:36:17;5.45;;;1.10;;
53545;SDS011;39432;51.902;10.844;2024-01-16T05:38:47;4.40;;;1.13;;
53545;SDS011;39432;51.902;10.844;2024-01-16T05:41:20;5.38;;;1.00;;
53545;SDS011;39432;51.902;10.844;2024-01-16T05:43:50;3.30;;;0.90;;
53545;SDS011;39432;51.902;10.844;2024-01-16T05:46:20;4.30;;;1.17;;
53545;SDS011;39432;51.902;10.844;2024-01-16T05:48:49;5.72;;;0.95;;
53545;SDS011;39432;51.902;10.844;2024-01-16T05:51:19;2.78;;;1.00;;
53545;SDS011;39432;51.902;10.844;2024-01-16T05:53:49;3.25;;;1.00;;
53545;SDS011;39432;51.902;10.844;2024-01-16T05:56:22;10.30;;;1.17;;
53545;SDS011;39432;51.902;10.844;2024-01-16T05:58:52;4.80;;;0.98;;
53545;SDS011;39432;51.902;10.844;2024-01-16T06:01:22;5.10;;;1.00;;
53545;SDS011;39432;51.902;10.844;2024-01-16T06:03:52;8.93;;;1.48;;
53545;SDS011;39432;51.902;10.844;2024-01-16T06:06:22;5.07;;;1.08;;
53545;SDS011;39432;51.902;10.844;2024-01-16T06:08:52;5.18;;;1.23;;
53545;SDS011;39432;51.902;10.844;2024-01-16T06:11:31;3.67;;;1.00;;
53545;SDS011;39432;51.902;10.844;2024-01-16T06:14:04;6.13;;;1.20;;
53545;SDS011;39432;51.902;10.844;2024-01-16T06:16:33;7.68;;;1.13;;
53545;SDS011;39432;51.902;10.844;2024-01-16T06:19:03;2.72;;;1.02;;
53545;SDS011;39432;51.902;10.844;2024-01-16T06:21:35;3.33;;;0.88;;
53545;SDS011;39432;51.902;10.844;2024-01-16T06:24:06;6.65;;;1.15;;
53545;SDS011;39432;51.902;10.844;2024-01-16T06:26:40;4.90;;;1.45;;
53545;SDS011;39432;51.902;10.844;2024-01-16T06:29:11;10.60;;;1.23;;
53545;SDS011;39432;51.902;10.844;2024-01-16T06:31:57;6.93;;;1.67;;
53545;SDS011;39432;51.902;10.844;2024-01-16T06:34:27;6.13;;;1.20;;
53545;SDS011;39432;51.902;10.844;2024-01-16T06:36:57;5.93;;;1.30;;
53545;SDS011;39432;51.902;10.844;2024-01-16T06:39:27;2.85;;;0.70;;
53545;SDS011;39432;51.902;10.844;2024-01-16T06:42:00;7.18;;;1.25;;
53545;SDS011;39432;51.902;10.844;2024-01-16T06:44:35;5.10;;;1.08;;
53545;SDS011;39432;51.902;10.844;2024-01-16T06:47:05;7.93;;;1.30;;
53545;SDS011;39432;51.902;10.844;2024-01-16T06:49:35;4.65;;;1.00;;
53545;SDS011;39432;51.902;10.844;2024-01-16T06:52:06;3.47;;;1.02;;
53545;SDS011;39432;51.902;10.844;2024-01-16T06:54:36;3.17;;;1.00;;
53545;SDS011;39432;51.902;10.844;2024-01-16T06:57:08;5.40;;;0.93;;
53545;SDS011;39432;51.902;10.844;2024-01-16T06:59:38;3.53;;;1.23;;
53545;SDS011;39432;51.902;10.844;2024-01-16T07:02:08;8.35;;;1.50;;
53545;SDS011;39432;51.902;10.844;2024-01-16T07:04:38;2.00;;;1.15;;
53545;SDS011;39432;51.902;10.844;2024-01-16T07:07:08;5.38;;;1.60;;
53545;SDS011;39432;51.902;10.844;2024-01-16T07:09:38;5.25;;;1.17;;
53545;SDS011;39432;51.902;10.844;2024-01-16T07:12:11;3.85;;;1.35;;
53545;SDS011;39432;51.902;10.844;2024-01-16T07:14:41;6.25;;;1.55;;
53545;SDS011;39432;51.902;10.844;2024-01-16T07:17:11;2.30;;;1.33;;
53545;SDS011;39432;51.902;10.844;2024-01-16T07:19:41;4.57;;;1.33;;
53545;SDS011;39432;51.902;10.844;2024-01-16T07:22:11;4.68;;;1.38;;
53545;SDS011;39432;51.902;10.844;2024-01-16T07:24:41;14.48;;;1.83;;
53545;SDS011;39432;51.902;10.844;2024-01-16T07:27:14;5.80;;;1.77;;
53545;SDS011;39432;51.902;10.844;2024-01-16T07:29:44;7.43;;;1.30;;
53545;SDS011;39432;51.902;10.844;2024-01-16T07:32:14;4.63;;;1.63;;
53545;SDS011;39432;51.902;10.844;2024-01-16T07:34:44;7.28;;;1.58;;
53545;SDS011;39432;51.902;10.844;2024-01-16T07:37:14;2.67;;;1.17;;
53545;SDS011;39432;51.902;10.844;2024-01-16T07:39:44;6.03;;;1.50;;
53545;SDS011;39432;51.902;10.844;2024-01-16T07:42:17;4.45;;;1.30;;
53545;SDS011;39432;51.902;10.844;2024-01-16T07:44:47;5.68;;;1.80;;
53545;SDS011;39432;51.902;10.844;2024-01-16T07:47:17;7.18;;;1.77;;
53545;SDS011;39432;51.902;10.844;2024-01-16T07:49:47;3.83;;;1.48;;
53545;SDS011;39432;51.902;10.844;2024-01-16T07:52:17;5.75;;;1.80;;
53545;SDS011;39432;51.902;10.844;2024-01-16T07:54:46;7.75;;;1.88;;
53545;SDS011;39432;51.902;10.844;2024-01-16T07:57:19;4.65;;;1.38;;
53545;SDS011;39432;51.902;10.844;2024-01-16T07:59:49;6.50;;;1.17;;
53545;SDS011;39432;51.902;10.844;2024-01-16T08:02:19;2.92;;;1.27;;
53545;SDS011;39432;51.902;10.844;2024-01-16T08:04:50;4.70;;;1.00;;
53545;SDS011;39432;51.902;10.844;2024-01-16T08:07:20;4.20;;;1.25;;
53545;SDS011;39432;51.902;10.844;2024-01-16T08:09:50;5.43;;;1.35;;
53545;SDS011;39432;51.902;10.844;2024-01-16T08:12:22;8.38;;;1.90;;
53545;SDS011;39432;51.902;10.844;2024-01-16T08:14:52;4.30;;;1.00;;
53545;SDS011;39432;51.902;10.844;2024-01-16T08:17:22;6.10;;;1.55;;
53545;SDS011;39432;51.902;10.844;2024-01-16T08:19:53;4.35;;;1.50;;
53545;SDS011;39432;51.902;10.844;2024-01-16T08:22:23;4.47;;;1.10;;
53545;SDS011;39432;51.902;10.844;2024-01-16T08:24:53;11.18;;;1.77;;
53545;SDS011;39432;51.902;10.844;2024-01-16T08:27:25;4.40;;;1.30;;
53545;SDS011;39432;51.902;10.844;2024-01-16T08:29:56;6.68;;;1.65;;
53545;SDS011;39432;51.902;10.844;2024-01-16T08:32:26;4.22;;;1.60;;
53545;SDS011;39432;51.902;10.844;2024-01-16T08:34:56;3.42;;;1.35;;
53545;SDS011;39432;51.902;10.844;2024-01-16T08:37:26;3.38;;;1.45;;
53545;SDS011;39432;51.902;10.844;2024-01-16T08:39:56;8.70;;;1.35;;
53545;SDS011;39432;51.902;10.844;2024-01-16T08:42:28;5.03;;;1.38;;
53545;SDS011;39432;51.902;10.844;2024-01-16T08:44:58;3.38;;;1.45;;
53545;SDS011;39432;51.902;10.844;2024-01-16T08:47:29;7.95;;;2.10;;
53545;SDS011;39432;51.902;10.844;2024-01-16T08:49:59;5.00;;;1.92;;
53545;SDS011;39432;51.902;10.844;2024-01-16T08:52:29;4.18;;;1.58;;
53545;SDS011;39432;51.902;10.844;2024-01-16T08:54:59;9.85;;;1.58;;
53545;SDS011;39432;51.902;10.844;2024-01-16T08:57:32;3.50;;;1.40;;
53545;SDS011;39432;51.902;10.844;2024-01-16T09:00:02;3.78;;;1.30;;
53545;SDS011;39432;51.902;10.844;2024-01-16T09:02:33;10.00;;;1.55;;
53545;SDS011;39432;51.902;10.844;2024-01-16T09:05:03;5.82;;;1.42;;
53545;SDS011;39432;51.902;10.844;2024-01-16T09:07:34;5.95;;;1.90;;
53545;SDS011;39432;51.902;10.844;2024-01-16T09:10:04;3.05;;;1.48;;
53545;SDS011;39432;51.902;10.844;2024-01-16T09:12:37;3.40;;;1.38;;
53545;SDS011;39432;51.902;10.844;2024-01-16T09:15:08;3.28;;;1.60;;
53545;SDS011;39432;51.902;10.844;2024-01-16T09:17:39;10.77;;;1.90;;
53545;SDS011;39432;51.902;10.844;2024-01-16T09:20:09;4.85;;;1.75;;
53545;SDS011;39432;51.902;10.844;2024-01-16T09:22:40;3.60;;;1.42;;
53545;SDS011;39432;51.902;10.844;2024-01-16T09:25:10;8.40;;;1.70;;
53545;SDS011;39432;51.902;10.844;2024-01-16T09:27:42;6.97;;;1.70;;
53545;SDS011;39432;51.902;10.844;2024-01-16T09:30:12;5.63;;;1.75;;
53545;SDS011;39432;51.902;10.844;2024-01-16T09:32:43;6.80;;;1.95;;
53545;SDS011;39432;51.902;10.844;2024-01-16T09:35:13;11.02;;;2.35;;
53545;SDS011;39432;51.902;10.844;2024-01-16T09:37:43;5.57;;;2.00;;
53545;SDS011;39432;51.902;10.844;2024-01-16T09:40:13;6.80;;;1.92;;
53545;SDS011;39432;51.902;10.844;2024-01-16T09:42:45;5.97;;;1.50;;
53545;SDS011;39432;51.902;10.844;2024-01-16T09:45:18;5.35;;;1.80;;
53545;SDS011;39432;51.902;10.844;2024-01-16T09:47:50;5.57;;;1.60;;
53545;SDS011;39432;51.902;10.844;2024-01-16T09:50:21;5.43;;;2.22;;
53545;SDS011;39432;51.902;10.844;2024-01-16T09:52:52;4.75;;;2.10;;
53545;SDS011;39432;51.902;10.844;2024-01-16T09:55:25;3.45;;;1.85;;
53545;SDS011;39432;51.902;10.844;2024-01-16T09:57:58;4.45;;;2.20;;
53545;SDS011;39432;51.902;10.844;2024-01-16T10:00:30;5.70;;;2.10;;
53545;SDS011;39432;51.902;10.844;2024-01-16T10:03:00;4.85;;;1.63;;
53545;SDS011;39432;51.902;10.844;2024-01-16T10:05:31;5.82;;;2.35;;
53545;SDS011;39432;51.902;10.844;2024-01-16T10:08:02;4.75;;;2.33;;
53545;SDS011;39432;51.902;10.844;2024-01-16T10:10:32;5.38;;;2.05;;
53545;SDS011;39432;51.902;10.844;2024-01-16T10:13:17;8.52;;;2.40;;
53545;SDS011;39432;51.902;10.844;2024-01-16T10:15:49;6.25;;;2.17;;
53545;SDS011;39432;51.902;10.844;2024-01-16T10:18:22;5.80;;;2.45;;
53545;SDS011;39432;51.902;10.844;2024-01-16T10:20:54;7.32;;;2.45;;
53545;SDS011;39432;51.902;10.844;2024-01-16T10:23:24;5.60;;;2.60;;
53545;SDS011;39432;51.902;10.844;2024-01-16T10:26:07;6.00;;;2.38;;
53545;SDS011;39432;51.902;10.844;2024-01-16T10:28:41;4.07;;;2.10;;
53545;SDS011;39432;51.902;10.844;2024-01-16T10:31:12;6.95;;;2.65;;
53545;SDS011;39432;51.902;10.844;2024-01-16T10:33:43;5.85;;;2.33;;
53545;SDS011;39432;51.902;10.844;2024-01-16T10:36:14;4.00;;;2.30;;
53545;SDS011;39432;51.902;10.844;2024-01-16T10:38:47;4.40;;;2.45;;
53545;SDS011;39432;51.902;10.844;2024-01-16T10:41:24;5.10;;;2.58;;
53545;SDS011;39432;51.902;10.844;2024-01-16T10:44:04;8.60;;;2.70;;
53545;SDS011;39432;51.902;10.844;2024-01-16T10:46:35;5.88;;;2.53;;
53545;SDS011;39432;51.902;10.844;2024-01-16T10:49:06;4.82;;;2.55;;
53545;SDS011;39432;51.902;10.844;2024-01-16T10:51:36;4.57;;;2.10;;
53545;SDS011;39432;51.902;10.844;2024-01-16T10:54:06;5.57;;;2.40;;
53545;SDS011;39432;51.902;10.844;2024-01-16T10:56:42;7.40;;;2.70;;
53545;SDS011;39432;51.902;10.844;2024-01-16T10:59:21;6.40;;;3.00;;
53545;SDS011;39432;51.902;10.844;2024-01-16T11:01:56;4.20;;;2.90;;
53545;SDS011;39432;51.902;10.844;2024-01-16T11:04:29;5.13;;;2.45;;
53545;SDS011;39432;51.902;10.844;2024-01-16T11:07:00;5.10;;;2.25;;
53545;SDS011;39432;51.902;10.844;2024-01-16T11:09:31;8.15;;;3.33;;
53545;SDS011;39432;51.902;10.844;2024-01-16T11:12:01;6.03;;;3.05;;
53545;SDS011;39432;51.902;10.844;2024-01-16T11:14:35;6.20;;;2.83;;
53545;SDS011;39432;51.902;10.844;2024-01-16T11:17:06;7.60;;;2.70;;
53545;SDS011;39432;51.902;10.844;2024-01-16T11:19:44;4.63;;;2.05;;
53545;SDS011;39432;51.902;10.844;2024-01-16T11:22:19;7.13;;;2.60;;
53545;SDS011;39432;51.902;10.844;2024-01-16T11:27:39;7.60;;;3.13;;
53545;SDS011;39432;51.902;10.844;2024-01-16T11:30:12;5.13;;;2.70;;
53545;SDS011;39432;51.902;10.844;2024-01-16T11:32:59;4.78;;;2.25;;
53545;SDS011;39432;51.902;10.844;2024-01-16T11:35:32;5.80;;;2.47;;
53545;SDS011;39432;51.902;10.844;2024-01-16T11:38:04;5.65;;;2.33;;
53545;SDS011;39432;51.902;10.844;2024-01-16T11:40:38;5.53;;;2.65;;
53545;SDS011;39432;51.902;10.844;2024-01-16T11:46:10;6.47;;;1.83;;
53545;SDS011;39432;51.902;10.844;2024-01-16T11:48:41;5.15;;;2.28;;
53545;SDS011;39432;51.902;10.844;2024-01-16T11:51:24;3.17;;;1.80;;
53545;SDS011;39432;51.902;10.844;2024-01-16T11:53:55;4.10;;;1.90;;
53545;SDS011;39432;51.902;10.844;2024-01-16T12:02:28;5.38;;;2.40;;
53545;SDS011;39432;51.902;10.844;2024-01-16T12:05:02;5.97;;;2.78;;
53545;SDS011;39432;51.902;10.844;2024-01-16T12:07:44;12.18;;;3.03;;
53545;SDS011;39432;51.902;10.844;2024-01-16T12:10:16;4.70;;;2.78;;
53545;SDS011;39432;51.902;10.844;2024-01-16T12:12:47;7.40;;;3.00;;
53545;SDS011;39432;51.902;10.844;2024-01-16T12:15:18;5.10;;;2.75;;
53545;SDS011;39432;51.902;10.844;2024-01-16T12:17:58;4.10;;;2.58;;
53545;SDS011;39432;51.902;10.844;2024-01-16T12:20:31;5.03;;;2.70;;
53545;SDS011;39432;51.902;10.844;2024-01-16T12:23:02;4.53;;;2.50;;
53545;SDS011;39432;51.902;10.844;2024-01-16T12:25:34;4.85;;;1.92;;
53545;SDS011;39432;51.902;10.844;2024-01-16T12:28:25;3.95;;;2.08;;
53545;SDS011;39432;51.902;10.844;2024-01-16T12:30:59;4.80;;;2.20;;
53545;SDS011;39432;51.902;10.844;2024-01-16T12:33:33;5.30;;;2.13;;
53545;SDS011;39432;51.902;10.844;2024-01-16T12:36:05;4.03;;;2.45;;
53545;SDS011;39432;51.902;10.844;2024-01-16T12:38:37;4.05;;;2.25;;
53545;SDS011;39432;51.902;10.844;2024-01-16T12:41:08;8.30;;;2.75;;
53545;SDS011;39432;51.902;10.844;2024-01-16T12:43:39;3.55;;;2.00;;
53545;SDS011;39432;51.902;10.844;2024-01-16T12:46:11;4.30;;;2.13;;
53545;SDS011;39432;51.902;10.844;2024-01-16T12:48:43;4.75;;;2.35;;
53545;SDS011;39432;51.902;10.844;2024-01-16T12:51:28;7.72;;;2.95;;
53545;SDS011;39432;51.902;10.844;2024-01-16T12:54:09;7.57;;;2.78;;
53545;SDS011;39432;51.902;10.844;2024-01-16T12:56:40;8.07;;;2.70;;
53545;SDS011;39432;51.902;10.844;2024-01-16T12:59:10;8.18;;;2.92;;
53545;SDS011;39432;51.902;10.844;2024-01-16T13:01:42;4.60;;;2.50;;
53545;SDS011;39432;51.902;10.844;2024-01-16T13:04:16;3.63;;;2.33;;
53545;SDS011;39432;51.902;10.844;2024-01-16T13:06:47;6.57;;;2.85;;
53545;SDS011;39432;51.902;10.844;2024-01-16T13:09:17;5.00;;;2.60;;
53545;SDS011;39432;51.902;10.844;2024-01-16T13:11:53;7.13;;;2.78;;
53545;SDS011;39432;51.902;10.844;2024-01-16T13:14:25;5.50;;;3.20;;
53545;SDS011;39432;51.902;10.844;2024-01-16T13:16:57;6.70;;;2.45;;
53545;SDS011;39432;51.902;10.844;2024-01-16T13:19:30;3.70;;;2.72;;
53545;SDS011;39432;51.902;10.844;2024-01-16T13:22:00;5.72;;;3.30;;
53545;SDS011;39432;51.902;10.844;2024-01-16T13:24:31;7.57;;;3.88;;
53545;SDS011;39432;51.902;10.844;2024-01-16T13:27:00;5.22;;;3.20;;
53545;SDS011;39432;51.902;10.844;2024-01-16T13:29:31;3.15;;;2.72;;
53545;SDS011;39432;51.902;10.844;2024-01-16T13:32:05;6.30;;;3.25;;
53545;SDS011;39432;51.902;10.844;2024-01-16T13:34:38;4.90;;;3.17;;
53545;SDS011;39432;51.902;10.844;2024-01-16T13:37:13;4.00;;;3.00;;
53545;SDS011;39432;51.902;10.844;2024-01-16T13:39:50;6.30;;;3.40;;
53545;SDS011;39432;51.902;10.844;2024-01-16T13:42:20;4.93;;;2.90;;
53545;SDS011;39432;51.902;10.844;2024-01-16T13:44:50;6.70;;;3.47;;
53545;SDS011;39432;51.902;10.844;2024-01-16T13:47:20;7.50;;;3.60;;
53545;SDS011;39432;51.902;10.844;2024-01-16T13:49:52;5.50;;;2.28;;
53545;SDS011;39432;51.902;10.844;2024-01-16T13:52:23;5.38;;;2.45;;
53545;SDS011;39432;51.902;10.844;2024-01-16T13:54:54;6.65;;;2.80;;
53545;SDS011;39432;51.902;10.844;2024-01-16T13:57:27;6.20;;;2.55;;
53545;SDS011;39432;51.902;10.844;2024-01-16T13:59:57;5.50;;;2.30;;
53545;SDS011;39432;51.902;10.844;2024-01-16T14:02:37;6.32;;;2.90;;
53545;SDS011;39432;51.902;10.844;2024-01-16T14:05:10;6.03;;;2.08;;
53545;SDS011;39432;51.902;10.844;2024-01-16T14:07:42;7.00;;;2.00;;
53545;SDS011;39432;51.902;10.844;2024-01-16T14:10:13;9.00;;;2.30;;
53545;SDS011;39432;51.902;10.844;2024-01-16T14:12:44;6.05;;;1.80;;
53545;SDS011;39432;51.902;10.844;2024-01-16T14:15:15;5.53;;;2.50;;
53545;SDS011;39432;51.902;10.844;2024-01-16T14:17:46;5.10;;;1.98;;
53545;SDS011;39432;51.902;10.844;2024-01-16T14:20:21;4.28;;;1.98;;
53545;SDS011;39432;51.902;10.844;2024-01-16T14:22:54;6.90;;;1.90;;
53545;SDS011;39432;51.902;10.844;2024-01-16T14:25:25;4.82;;;1.83;;
53545;SDS011;39432;51.902;10.844;2024-01-16T14:27:55;4.22;;;1.48;;
53545;SDS011;39432;51.902;10.844;2024-01-16T14:30:29;3.42;;;1.75;;
53545;SDS011;39432;51.902;10.844;2024-01-16T14:33:01;10.32;;;2.05;;
53545;SDS011;39432;51.902;10.844;2024-01-16T14:35:36;6.53;;;2.25;;
53545;SDS011;39432;51.902;10.844;2024-01-16T14:38:06;6.60;;;1.80;;
53545;SDS011;39432;51.902;10.844;2024-01-16T14:40:36;5.57;;;1.50;;
53545;SDS011;39432;51.902;10.844;2024-01-16T14:43:07;4.63;;;1.65;;
53545;SDS011;39432;51.902;10.844;2024-01-16T14:45:37;4.90;;;1.58;;
53545;SDS011;39432;51.902;10.844;2024-01-16T14:48:07;5.03;;;1.50;;
53545;SDS011;39432;51.902;10.844;2024-01-16T14:50:41;5.57;;;1.48;;
53545;SDS011;39432;51.902;10.844;2024-01-16T14:53:11;6.43;;;1.38;;
53545;SDS011;39432;51.902;10.844;2024-01-16T14:55:41;4.93;;;1.85;;
53545;SDS011;39432;51.902;10.844;2024-01-16T14:58:11;13.98;;;2.10;;
53545;SDS011;39432;51.902;10.844;2024-01-16T15:00:41;5.28;;;1.30;;
53545;SDS011;39432;51.902;10.844;2024-01-16T15:03:12;5.55;;;1.58;;
53545;SDS011;39432;51.902;10.844;2024-01-16T15:05:49;5.60;;;1.63;;
53545;SDS011;39432;51.902;10.844;2024-01-16T15:08:22;6.97;;;2.10;;
53545;SDS011;39432;51.902;10.844;2024-01-16T15:10:53;9.75;;;2.22;;